Time;durP1;ratioP1;P1;durP2;ratioP2;P2;SDS_P1;SDS_P2;PMS_P1;PMS_P2;Temp;Humidity;BMP_temperature;BMP_pressure;BME280_temperature;BME280_humidity;BME280_pressure;Samples;Min_cycle;Max_cycle;Signal;HPM_P1;HPM_P2
2021/05/24 00:00:40;;;;;;;0.95;0.80;;;;;;;;;;5034931;28;20484;-41
2021/05/24 00:03:07;;;;;;;2.28;0.90;;;;;;;;;;5045542;28;20164;-41
2021/05/24 00:05:34;;;;;;;0.70;0.70;;;;;;;;;;5034695;28;20572;-41
2021/05/24 00:08:01;;;;;;;0.73;0.73;;;;;;;;;;5040542;28;20175;-41
2021/05/24 00:10:29;;;;;;;0.80;0.80;;;;;;;;;;5041384;28;20721;-41
2021/05/24 00:12:57;;;;;;;0.85;0.85;;;;;;;;;;5033998;28;20183;-41
2021/05/24 00:15:24;;;;;;;1.00;0.80;;;;;;;;;;5034693;28;20318;-41
2021/05/24 00:17:50;;;;;;;0.75;0.63;;;;;;;;;;5034427;28;20175;-41
2021/05/24 00:20:18;;;;;;;1.02;0.90;;;;;;;;;;5045163;28;20643;-41
2021/05/24 00:22:44;;;;;;;1.30;0.80;;;;;;;;;;5054714;28;20628;-42
2021/05/24 00:25:11;;;;;;;0.70;0.68;;;;;;;;;;5047016;28;20244;-42
2021/05/24 00:27:37;;;;;;;0.68;0.68;;;;;;;;;;5056225;28;20175;-42
2021/05/24 00:30:04;;;;;;;0.90;0.80;;;;;;;;;;5058120;28;20168;-42
2021/05/24 00:32:30;;;;;;;0.80;0.80;;;;;;;;;;5056186;28;20604;-42
2021/05/24 00:34:56;;;;;;;0.90;0.90;;;;;;;;;;5056405;28;20172;-42
2021/05/24 00:37:23;;;;;;;0.85;0.70;;;;;;;;;;5048426;28;20171;-41
2021/05/24 00:39:49;;;;;;;0.75;0.75;;;;;;;;;;5056244;28;20582;-42
2021/05/24 00:42:15;;;;;;;1.30;0.90;;;;;;;;;;5057210;28;20171;-42
2021/05/24 00:44:42;;;;;;;0.85;0.80;;;;;;;;;;5056890;28;20572;-42
2021/05/24 00:47:08;;;;;;;0.80;0.70;;;;;;;;;;5052556;28;20180;-42
2021/05/24 00:49:33;;;;;;;1.23;0.88;;;;;;;;;;5038052;28;20513;-42
2021/05/24 00:52:00;;;;;;;0.63;0.63;;;;;;;;;;5044360;28;20219;-42
2021/05/24 00:54:26;;;;;;;0.95;0.90;;;;;;;;;;5057320;28;20171;-42
2021/05/24 00:56:53;;;;;;;1.02;0.70;;;;;;;;;;5052556;28;20258;-42
2021/05/24 00:59:19;;;;;;;0.65;0.50;;;;;;;;;;5037528;28;20239;-42
2021/05/24 01:01:45;;;;;;;0.70;0.70;;;;;;;;;;5038857;28;20230;-42
2021/05/24 01:04:14;;;;;;;0.70;0.70;;;;;;;;;;5053886;28;20459;-41
2021/05/24 01:06:40;;;;;;;0.65;0.60;;;;;;;;;;5044439;28;20171;-41
2021/05/24 01:09:06;;;;;;;0.88;0.60;;;;;;;;;;5037079;28;20190;-41
2021/05/24 01:11:34;;;;;;;0.70;0.52;;;;;;;;;;5051055;28;20485;-41
2021/05/24 01:14:03;;;;;;;0.70;0.70;;;;;;;;;;5057421;28;20163;-41
2021/05/24 01:16:30;;;;;;;0.80;0.80;;;;;;;;;;5051267;28;20557;-41
2021/05/24 01:18:56;;;;;;;0.85;0.85;;;;;;;;;;5052566;28;20270;-41
2021/05/24 01:21:24;;;;;;;1.23;0.57;;;;;;;;;;5055617;28;20190;-43
2021/05/24 01:23:50;;;;;;;0.60;0.60;;;;;;;;;;5055985;28;20215;-42
2021/05/24 01:26:17;;;;;;;0.60;0.60;;;;;;;;;;5053374;28;20215;-42
2021/05/24 01:28:43;;;;;;;0.82;0.77;;;;;;;;;;5038243;28;20287;-42
2021/05/24 01:31:09;;;;;;;0.70;0.70;;;;;;;;;;5044740;28;20190;-41
2021/05/24 01:33:36;;;;;;;0.70;0.70;;;;;;;;;;5047682;28;20566;-41
2021/05/24 01:36:09;;;;;;;1.08;0.80;;;;;;;;;;5036799;28;20469;-42
2021/05/24 01:38:37;;;;;;;0.70;0.70;;;;;;;;;;5051794;28;20195;-42
2021/05/24 01:41:03;;;;;;;0.57;0.57;;;;;;;;;;5036089;28;20214;-41
2021/05/24 01:43:30;;;;;;;0.75;0.75;;;;;;;;;;5036741;28;20551;-41
2021/05/24 01:45:56;;;;;;;0.60;0.60;;;;;;;;;;5048797;28;20458;-41
2021/05/24 01:48:23;;;;;;;0.60;0.60;;;;;;;;;;5056022;28;20236;-41
2021/05/24 01:50:49;;;;;;;1.00;0.70;;;;;;;;;;5051954;28;20279;-41
2021/05/24 01:53:15;;;;;;;0.55;0.50;;;;;;;;;;5053958;28;20431;-41
2021/05/24 01:55:41;;;;;;;0.60;0.60;;;;;;;;;;5056534;28;20178;-41
2021/05/24 01:58:08;;;;;;;0.73;0.50;;;;;;;;;;5043200;28;20195;-41
2021/05/24 02:00:34;;;;;;;0.57;0.52;;;;;;;;;;5047823;28;20214;-42
2021/05/24 02:03:01;;;;;;;0.50;0.50;;;;;;;;;;5048411;28;20561;-42
2021/05/24 02:05:28;;;;;;;0.50;0.47;;;;;;;;;;5036050;28;20462;-42
2021/05/24 02:07:55;;;;;;;0.70;0.70;;;;;;;;;;5046510;28;20176;-42
2021/05/24 02:10:23;;;;;;;0.50;0.50;;;;;;;;;;5045321;28;20579;-42
2021/05/24 02:12:49;;;;;;;0.40;0.40;;;;;;;;;;5038541;28;20186;-41
2021/05/24 02:15:20;;;;;;;0.60;0.60;;;;;;;;;;5055900;28;20190;-41
2021/05/24 02:17:46;;;;;;;0.95;0.70;;;;;;;;;;5046920;28;20198;-41
2021/05/24 02:20:12;;;;;;;0.70;0.52;;;;;;;;;;5037127;28;20210;-41
2021/05/24 02:22:39;;;;;;;0.40;0.40;;;;;;;;;;5036418;28;20161;-41
2021/05/24 02:25:05;;;;;;;0.50;0.50;;;;;;;;;;5055964;28;20182;-41
2021/05/24 02:27:31;;;;;;;0.60;0.60;;;;;;;;;;5048746;28;20210;-41
2021/05/24 02:29:58;;;;;;;0.60;0.60;;;;;;;;;;5042341;28;20171;-41
2021/05/24 02:32:24;;;;;;;0.65;0.65;;;;;;;;;;5055002;28;20430;-41
2021/05/24 02:34:50;;;;;;;1.08;0.60;;;;;;;;;;5055072;28;20477;-42
2021/05/24 02:37:16;;;;;;;0.43;0.43;;;;;;;;;;5050966;28;20176;-42
2021/05/24 02:39:42;;;;;;;0.43;0.43;;;;;;;;;;5039613;28;20183;-41
2021/05/24 02:42:08;;;;;;;0.47;0.45;;;;;;;;;;5054192;28;20235;-41
2021/05/24 02:44:34;;;;;;;0.73;0.60;;;;;;;;;;5038718;28;20447;-41
2021/05/24 02:47:00;;;;;;;0.65;0.65;;;;;;;;;;5034655;28;20172;-41
2021/05/24 02:49:26;;;;;;;0.60;0.57;;;;;;;;;;5046779;28;20194;-41
2021/05/24 02:51:52;;;;;;;0.55;0.45;;;;;;;;;;5041004;28;20419;-41
2021/05/24 02:54:18;;;;;;;0.60;0.60;;;;;;;;;;5054607;28;20190;-41
2021/05/24 02:56:44;;;;;;;0.50;0.50;;;;;;;;;;5054905;28;20187;-41
2021/05/24 02:59:10;;;;;;;0.65;0.65;;;;;;;;;;5035753;28;20259;-41
2021/05/24 03:01:36;;;;;;;0.50;0.50;;;;;;;;;;5051859;28;20660;-41
2021/05/24 03:04:03;;;;;;;0.90;0.70;;;;;;;;;;5040225;28;20461;-41
2021/05/24 03:06:29;;;;;;;0.63;0.60;;;;;;;;;;5036541;28;20266;-41
2021/05/24 03:08:55;;;;;;;0.60;0.60;;;;;;;;;;5046381;28;20175;-41
2021/05/24 03:11:24;;;;;;;0.52;0.50;;;;;;;;;;5051569;28;20197;-41
2021/05/24 03:13:51;;;;;;;1.38;0.50;;;;;;;;;;5054447;28;20233;-41
2021/05/24 03:16:17;;;;;;;0.57;0.55;;;;;;;;;;5054740;28;20167;-42
2021/05/24 03:18:43;;;;;;;0.50;0.50;;;;;;;;;;5039492;28;20543;-41
2021/05/24 03:21:09;;;;;;;0.50;0.50;;;;;;;;;;5034351;28;20206;-41
2021/05/24 03:23:35;;;;;;;0.47;0.47;;;;;;;;;;5045736;28;20211;-41
2021/05/24 03:26:01;;;;;;;0.47;0.47;;;;;;;;;;5052746;28;20182;-41
2021/05/24 03:28:27;;;;;;;0.70;0.38;;;;;;;;;;5041542;28;20176;-41
2021/05/24 03:30:53;;;;;;;0.40;0.40;;;;;;;;;;5046609;28;20554;-41
2021/05/24 03:33:19;;;;;;;0.40;0.40;;;;;;;;;;5053956;28;20179;-41
2021/05/24 03:35:45;;;;;;;0.30;0.30;;;;;;;;;;5054590;28;20175;-41
2021/05/24 03:38:11;;;;;;;0.50;0.50;;;;;;;;;;5054365;28;20187;-41
2021/05/24 03:40:38;;;;;;;0.50;0.50;;;;;;;;;;5044446;28;20290;-41
2021/05/24 03:43:04;;;;;;;0.60;0.60;;;;;;;;;;5050199;28;20179;-41
2021/05/24 03:45:32;;;;;;;0.70;0.50;;;;;;;;;;5054479;28;20190;-41
2021/05/24 03:47:58;;;;;;;0.57;0.57;;;;;;;;;;5045995;28;20172;-41
2021/05/24 03:50:25;;;;;;;0.63;0.50;;;;;;;;;;5042550;28;20219;-41
2021/05/24 03:52:51;;;;;;;0.60;0.60;;;;;;;;;;5049432;28;20176;-41
2021/05/24 03:55:18;;;;;;;0.52;0.50;;;;;;;;;;5054704;28;20163;-41
2021/05/24 03:57:46;;;;;;;0.68;0.63;;;;;;;;;;5050783;28;20180;-41
2021/05/24 04:00:12;;;;;;;0.40;0.40;;;;;;;;;;5039125;28;20199;-41
2021/05/24 04:02:38;;;;;;;0.40;0.40;;;;;;;;;;5039212;28;20200;-41
2021/05/24 04:05:13;;;;;;;0.30;0.30;;;;;;;;;;5038700;28;20183;-41
2021/05/24 04:07:40;;;;;;;0.90;0.60;;;;;;;;;;5039623;28;20485;-41
2021/05/24 04:10:07;;;;;;;0.50;0.50;;;;;;;;;;5048338;28;20262;-41
2021/05/24 04:12:33;;;;;;;2.33;0.77;;;;;;;;;;5043418;28;20179;-41
2021/05/24 04:14:59;;;;;;;4.53;1.10;;;;;;;;;;5056879;28;20175;-41
2021/05/24 04:17:27;;;;;;;48.28;12.20;;;;;;;;;;5056885;28;20179;-41
2021/05/24 04:19:54;;;;;;;27.55;7.40;;;;;;;;;;5041348;28;20443;-41
2021/05/24 04:22:20;;;;;;;26.95;6.47;;;;;;;;;;5039535;28;20242;-42
2021/05/24 04:24:46;;;;;;;24.52;7.18;;;;;;;;;;5050411;28;20191;-42
2021/05/24 04:27:12;;;;;;;38.60;9.45;;;;;;;;;;5045242;28;20187;-42
2021/05/24 04:29:38;;;;;;;33.42;8.55;;;;;;;;;;5057316;28;20167;-42
2021/05/24 04:32:04;;;;;;;27.88;7.28;;;;;;;;;;5056302;28;20558;-42
2021/05/24 04:34:30;;;;;;;29.63;8.10;;;;;;;;;;5057589;28;20183;-42
2021/05/24 04:36:56;;;;;;;29.30;8.32;;;;;;;;;;5052471;28;20298;-42
2021/05/24 04:39:22;;;;;;;31.35;7.38;;;;;;;;;;5039810;28;20334;-42
2021/05/24 04:41:48;;;;;;;35.17;8.10;;;;;;;;;;5048516;28;20214;-42
2021/05/24 04:44:20;;;;;;;30.73;7.85;;;;;;;;;;5037931;28;20190;-42
2021/05/24 04:46:46;;;;;;;28.70;7.60;;;;;;;;;;5041099;28;20184;-42
2021/05/24 04:49:12;;;;;;;22.13;7.40;;;;;;;;;;5057719;28;20603;-42
2021/05/24 04:51:38;;;;;;;30.05;8.75;;;;;;;;;;5052170;28;20191;-42
2021/05/24 04:54:06;;;;;;;34.03;9.50;;;;;;;;;;5037526;28;20250;-42
2021/05/24 04:56:32;;;;;;;26.92;8.48;;;;;;;;;;5038463;28;20529;-42
2021/05/24 04:58:58;;;;;;;29.80;8.98;;;;;;;;;;5057445;28;20171;-42
2021/05/24 05:01:24;;;;;;;29.98;9.65;;;;;;;;;;5056122;28;20455;-42
2021/05/24 05:03:50;;;;;;;30.98;9.65;;;;;;;;;;5054974;28;20229;-42
2021/05/24 05:06:16;;;;;;;31.02;8.93;;;;;;;;;;5043901;28;20184;-42
2021/05/24 05:08:42;;;;;;;30.55;9.27;;;;;;;;;;5036314;28;20182;-42
2021/05/24 05:11:08;;;;;;;28.45;9.65;;;;;;;;;;5037025;28;20258;-42
2021/05/24 05:13:34;;;;;;;26.60;9.57;;;;;;;;;;5037516;28;20176;-42
2021/05/24 05:16:00;;;;;;;32.50;9.93;;;;;;;;;;5047311;28;20667;-42
2021/05/24 05:18:26;;;;;;;31.10;9.70;;;;;;;;;;5056439;28;20261;-42
2021/05/24 05:20:52;;;;;;;27.65;10.52;;;;;;;;;;5056382;28;20286;-42
2021/05/24 05:23:18;;;;;;;24.85;9.20;;;;;;;;;;5036981;28;20418;-42
2021/05/24 05:25:44;;;;;;;29.58;9.77;;;;;;;;;;5045307;28;20190;-42
2021/05/24 05:28:10;;;;;;;24.83;8.93;;;;;;;;;;5050210;28;20176;-42
2021/05/24 05:30:37;;;;;;;28.17;9.48;;;;;;;;;;5037152;28;20176;-42
2021/05/24 05:33:03;;;;;;;30.48;9.05;;;;;;;;;;5054319;28;20450;-42
2021/05/24 05:35:29;;;;;;;25.65;9.15;;;;;;;;;;5050488;28;20187;-42
2021/05/24 05:37:55;;;;;;;32.00;10.05;;;;;;;;;;5036639;28;20558;-42
2021/05/24 05:40:22;;;;;;;29.95;8.50;;;;;;;;;;5045185;28;20198;-42
2021/05/24 05:42:49;;;;;;;25.70;9.90;;;;;;;;;;5054928;28;20267;-42
2021/05/24 05:45:15;;;;;;;26.27;8.25;;;;;;;;;;5052655;28;20438;-42
2021/05/24 05:47:41;;;;;;;25.20;7.97;;;;;;;;;;5036533;28;20169;-42
2021/05/24 05:50:08;;;;;;;24.08;8.13;;;;;;;;;;5036372;28;20203;-42
2021/05/24 05:52:35;;;;;;;22.23;7.95;;;;;;;;;;5047795;28;20218;-42
2021/05/24 05:55:01;;;;;;;22.45;8.18;;;;;;;;;;5055600;28;20558;-42
2021/05/24 05:57:27;;;;;;;21.08;6.88;;;;;;;;;;5056187;28;20301;-42
2021/05/24 05:59:53;;;;;;;20.88;7.90;;;;;;;;;;5056396;28;20250;-42
2021/05/24 06:02:19;;;;;;;18.00;7.05;;;;;;;;;;5054654;28;20206;-42
2021/05/24 06:04:45;;;;;;;20.27;7.90;;;;;;;;;;5056215;28;20167;-42
2021/05/24 06:07:11;;;;;;;18.90;7.55;;;;;;;;;;5036323;28;20535;-42
2021/05/24 06:09:37;;;;;;;18.95;7.22;;;;;;;;;;5036584;28;20218;-42
2021/05/24 06:12:03;;;;;;;17.77;7.10;;;;;;;;;;5038797;28;20506;-42
2021/05/24 06:14:29;;;;;;;19.63;7.38;;;;;;;;;;5045183;28;20191;-42
2021/05/24 06:16:55;;;;;;;18.85;6.82;;;;;;;;;;5043872;28;20187;-42
2021/05/24 06:19:21;;;;;;;18.35;6.80;;;;;;;;;;5043376;28;20203;-42
2021/05/24 06:21:47;;;;;;;19.60;6.25;;;;;;;;;;5034464;28;20204;-42
2021/05/24 06:24:13;;;;;;;19.42;7.55;;;;;;;;;;5036370;28;20540;-42
2021/05/24 06:26:39;;;;;;;22.08;6.45;;;;;;;;;;5050750;28;20206;-42
2021/05/24 06:29:06;;;;;;;18.13;6.95;;;;;;;;;;5047421;28;20195;-42
2021/05/24 06:31:32;;;;;;;18.73;6.43;;;;;;;;;;5052251;28;20179;-42
2021/05/24 06:33:58;;;;;;;19.88;6.20;;;;;;;;;;5055856;28;20221;-42
2021/05/24 06:36:24;;;;;;;16.85;6.35;;;;;;;;;;5042433;28;20508;-42
2021/05/24 06:38:50;;;;;;;15.95;6.22;;;;;;;;;;5035768;28;20168;-42
2021/05/24 06:41:16;;;;;;;13.38;6.60;;;;;;;;;;5035239;28;20258;-42
2021/05/24 06:43:42;;;;;;;16.20;5.85;;;;;;;;;;5035642;28;20259;-42
2021/05/24 06:46:08;;;;;;;14.00;5.70;;;;;;;;;;5045760;28;20203;-42
2021/05/24 06:48:34;;;;;;;15.18;5.80;;;;;;;;;;5050688;28;20218;-42
2021/05/24 06:51:00;;;;;;;15.65;5.85;;;;;;;;;;5034873;28;20175;-42
2021/05/24 06:53:27;;;;;;;14.25;5.80;;;;;;;;;;5052192;28;20193;-42
2021/05/24 06:55:53;;;;;;;15.18;6.15;;;;;;;;;;5035461;28;20242;-42
2021/05/24 06:58:19;;;;;;;16.65;5.50;;;;;;;;;;5035383;28;20175;-42
2021/05/24 07:00:45;;;;;;;15.77;5.70;;;;;;;;;;5034898;28;20203;-42
2021/05/24 07:03:12;;;;;;;12.48;5.22;;;;;;;;;;5034987;28;20168;-42
2021/05/24 07:05:38;;;;;;;11.77;5.10;;;;;;;;;;5053454;28;20182;-42
2021/05/24 07:08:04;;;;;;;14.35;5.25;;;;;;;;;;5055028;28;20275;-42
2021/05/24 07:10:30;;;;;;;12.52;5.40;;;;;;;;;;5054660;28;20168;-42
2021/05/24 07:12:56;;;;;;;11.80;5.28;;;;;;;;;;5053277;28;20183;-42
2021/05/24 07:15:22;;;;;;;13.75;5.65;;;;;;;;;;5038026;28;20184;-42
2021/05/24 07:17:49;;;;;;;13.00;5.35;;;;;;;;;;5035060;28;20179;-42
2021/05/24 07:20:15;;;;;;;9.20;4.93;;;;;;;;;;5034747;28;20179;-42
2021/05/24 07:22:41;;;;;;;12.23;4.72;;;;;;;;;;5041973;28;20175;-42
2021/05/24 07:25:08;;;;;;;11.77;5.03;;;;;;;;;;5054578;28;20546;-42
2021/05/24 07:27:34;;;;;;;12.27;4.95;;;;;;;;;;5054720;28;20221;-42
2021/05/24 07:30:00;;;;;;;9.88;4.85;;;;;;;;;;5051786;28;20737;-42
2021/05/24 07:32:26;;;;;;;10.43;4.57;;;;;;;;;;5051974;28;20187;-42
2021/05/24 07:34:52;;;;;;;9.85;4.78;;;;;;;;;;5054846;28;20179;-42
2021/05/24 07:37:18;;;;;;;10.90;4.85;;;;;;;;;;5054743;28;20526;-42
2021/05/24 07:39:44;;;;;;;12.10;4.95;;;;;;;;;;5054556;28;20188;-42
2021/05/24 07:42:10;;;;;;;9.65;4.18;;;;;;;;;;5049419;28;20629;-42
2021/05/24 07:44:36;;;;;;;8.63;4.63;;;;;;;;;;5050659;28;20179;-42
2021/05/24 07:47:03;;;;;;;10.98;4.40;;;;;;;;;;5054347;28;20170;-42
2021/05/24 07:49:30;;;;;;;10.25;4.55;;;;;;;;;;5054549;28;20182;-42
2021/05/24 07:51:56;;;;;;;10.80;4.78;;;;;;;;;;5048497;28;20222;-42
2021/05/24 07:54:21;;;;;;;9.85;4.00;;;;;;;;;;5053824;28;20233;-42
2021/05/24 07:56:48;;;;;;;9.60;4.78;;;;;;;;;;5054477;28;20221;-42
2021/05/24 07:59:14;;;;;;;10.15;3.95;;;;;;;;;;5034627;28;20211;-42
2021/05/24 08:01:40;;;;;;;7.68;3.83;;;;;;;;;;5033520;28;20344;-42
2021/05/24 08:04:06;;;;;;;8.00;3.58;;;;;;;;;;5053030;28;20270;-43
2021/05/24 08:06:32;;;;;;;8.98;3.85;;;;;;;;;;5053469;28;20186;-42
2021/05/24 08:08:58;;;;;;;8.43;4.05;;;;;;;;;;5054287;28;20159;-42
2021/05/24 08:11:25;;;;;;;6.10;3.40;;;;;;;;;;5053719;28;20178;-42
2021/05/24 08:13:53;;;;;;;8.20;4.00;;;;;;;;;;5043677;28;20590;-42
2021/05/24 08:16:19;;;;;;;8.40;3.80;;;;;;;;;;5034061;28;20168;-42
2021/05/24 08:18:45;;;;;;;8.27;3.80;;;;;;;;;;5034403;28;20183;-42
2021/05/24 08:21:11;;;;;;;8.02;3.45;;;;;;;;;;5033756;28;20271;-42
2021/05/24 08:23:37;;;;;;;7.72;3.70;;;;;;;;;;5045916;28;20171;-42
2021/05/24 08:26:04;;;;;;;7.13;3.33;;;;;;;;;;5053666;28;20540;-42
2021/05/24 08:28:30;;;;;;;7.88;3.65;;;;;;;;;;5053666;28;20540;-42
2021/05/24 08:30:56;;;;;;;6.82;3.63;;;;;;;;;;5053693;28;20175;-42
2021/05/24 08:33:23;;;;;;;6.03;3.15;;;;;;;;;;5041732;28;20242;-42
2021/05/24 08:35:49;;;;;;;7.57;3.35;;;;;;;;;;5042708;28;20176;-42
2021/05/24 08:38:15;;;;;;;6.82;3.33;;;;;;;;;;5033473;28;20208;-42
2021/05/24 08:40:45;;;;;;;5.53;2.88;;;;;;;;;;5033464;28;20280;-42
2021/05/24 08:43:11;;;;;;;5.40;3.10;;;;;;;;;;5039610;28;20543;-42
2021/05/24 08:45:40;;;;;;;5.75;3.05;;;;;;;;;;5037846;28;20191;-42
2021/05/24 08:48:06;;;;;;;5.82;3.05;;;;;;;;;;5037021;28;20188;-42
2021/05/24 08:50:33;;;;;;;6.45;2.83;;;;;;;;;;5036918;28;20183;-42
2021/05/24 08:52:59;;;;;;;4.57;2.58;;;;;;;;;;5051867;28;20187;-42
2021/05/24 08:55:25;;;;;;;4.47;2.70;;;;;;;;;;5057421;28;20178;-42
2021/05/24 08:57:51;;;;;;;4.20;2.85;;;;;;;;;;5057325;28;20179;-42
2021/05/24 09:00:18;;;;;;;5.10;2.75;;;;;;;;;;5056681;28;20185;-42
2021/05/24 09:02:48;;;;;;;4.70;2.70;;;;;;;;;;5050888;28;20221;-42
2021/05/24 09:05:14;;;;;;;5.35;3.08;;;;;;;;;;5055427;28;20238;-42
2021/05/24 09:07:54;;;;;;;4.60;2.55;;;;;;;;;;5057281;28;20535;-42
2021/05/24 09:10:21;;;;;;;4.82;2.90;;;;;;;;;;5056858;28;20175;-42
2021/05/24 09:12:48;;;;;;;3.70;2.20;;;;;;;;;;5054286;28;20175;-42
2021/05/24 09:15:15;;;;;;;5.05;2.28;;;;;;;;;;5046174;28;20179;-42
2021/05/24 09:17:41;;;;;;;5.35;2.97;;;;;;;;;;5056459;28;20175;-42
2021/05/24 09:20:14;;;;;;;4.32;2.42;;;;;;;;;;5046197;28;20180;-42
2021/05/24 09:22:40;;;;;;;3.20;2.22;;;;;;;;;;5036604;28;20176;-42
2021/05/24 09:25:06;;;;;;;4.22;2.60;;;;;;;;;;5037222;28;20603;-42
2021/05/24 09:27:40;;;;;;;3.55;2.33;;;;;;;;;;5037105;28;20180;-42
2021/05/24 09:30:07;;;;;;;3.75;2.20;;;;;;;;;;5047018;28;20217;-42
2021/05/24 09:32:35;;;;;;;3.42;2.33;;;;;;;;;;5050514;28;20242;-42
2021/05/24 09:35:02;;;;;;;5.75;2.22;;;;;;;;;;5037216;28;20226;-42
2021/05/24 09:37:36;;;;;;;3.85;2.20;;;;;;;;;;5038598;28;20184;-42
2021/05/24 09:40:18;;;;;;;5.13;2.60;;;;;;;;;;5046169;28;20240;-43
2021/05/24 09:42:44;;;;;;;4.65;2.75;;;;;;;;;;5036187;28;20574;-42
2021/05/24 09:45:17;;;;;;;5.25;2.30;;;;;;;;;;5036910;28;20179;-42
2021/05/24 09:47:43;;;;;;;3.72;2.30;;;;;;;;;;5039944;28;20250;-42
2021/05/24 09:50:36;;;;;;;4.13;2.53;;;;;;;;;;5046378;28;20183;-42
2021/05/24 09:53:02;;;;;;;3.63;2.20;;;;;;;;;;5050905;28;20270;-42
2021/05/24 09:55:29;;;;;;;3.45;2.30;;;;;;;;;;5056318;28;20168;-42
2021/05/24 09:57:55;;;;;;;2.25;1.60;;;;;;;;;;5037320;28;20191;-43
2021/05/24 10:00:24;;;;;;;2.42;1.95;;;;;;;;;;5039048;28;20455;-43
2021/05/24 10:02:52;;;;;;;3.25;2.00;;;;;;;;;;5036191;28;20279;-42
2021/05/24 10:05:18;;;;;;;3.95;2.00;;;;;;;;;;5036635;28;20233;-42
2021/05/24 10:07:44;;;;;;;3.85;1.83;;;;;;;;;;5056542;28;20178;-42
2021/05/24 10:10:11;;;;;;;3.80;2.40;;;;;;;;;;5046394;28;20233;-42
2021/05/24 10:12:37;;;;;;;2.78;1.60;;;;;;;;;;5036161;28;20266;-42
2021/05/24 10:15:04;;;;;;;3.67;1.95;;;;;;;;;;5036135;28;20182;-42
2021/05/24 10:17:31;;;;;;;2.58;1.77;;;;;;;;;;5048964;28;20213;-42
2021/05/24 10:19:58;;;;;;;2.75;1.83;;;;;;;;;;5048402;28;20203;-42
2021/05/24 10:22:24;;;;;;;2.83;1.45;;;;;;;;;;5035634;28;20234;-42
2021/05/24 10:24:50;;;;;;;4.00;2.00;;;;;;;;;;5036375;28;20180;-42
2021/05/24 10:27:17;;;;;;;3.90;2.03;;;;;;;;;;5036161;28;20163;-44
2021/05/24 10:29:43;;;;;;;3.03;1.75;;;;;;;;;;5041050;28;20237;-42
2021/05/24 10:32:09;;;;;;;3.50;1.85;;;;;;;;;;5054785;28;20588;-42
2021/05/24 10:34:39;;;;;;;4.20;1.90;;;;;;;;;;5055914;28;20179;-42
2021/05/24 10:37:09;;;;;;;3.15;1.70;;;;;;;;;;5055078;28;20457;-42
2021/05/24 10:40:04;;;;;;;2.90;1.50;;;;;;;;;;5051344;28;20205;-42
2021/05/24 10:42:41;;;;;;;2.45;1.58;;;;;;;;;;5031699;28;20239;-42
2021/05/24 10:45:20;;;;;;;3.08;1.63;;;;;;;;;;5035740;28;20172;-42
2021/05/24 10:48:04;;;;;;;3.15;1.70;;;;;;;;;;5037892;28;20187;-42
2021/05/24 10:50:31;;;;;;;2.17;1.35;;;;;;;;;;5054899;28;20181;-43
2021/05/24 10:53:00;;;;;;;3.55;1.83;;;;;;;;;;5040228;28;20175;-42
2021/05/24 10:55:26;;;;;;;1.83;1.50;;;;;;;;;;5037183;28;20168;-42
2021/05/24 10:57:56;;;;;;;2.95;1.88;;;;;;;;;;5052374;28;20183;-42
2021/05/24 11:00:23;;;;;;;2.38;1.35;;;;;;;;;;5035437;28;20187;-42
2021/05/24 11:02:53;;;;;;;3.15;1.83;;;;;;;;;;5053695;28;20245;-42
2021/05/24 11:05:21;;;;;;;2.28;1.30;;;;;;;;;;5055137;28;20247;-42
2021/05/24 11:07:51;;;;;;;1.45;1.20;;;;;;;;;;5051883;28;20184;-42
2021/05/24 11:10:17;;;;;;;1.80;1.13;;;;;;;;;;5035236;28;20550;-42
2021/05/24 11:12:44;;;;;;;2.17;1.55;;;;;;;;;;5034815;28;20270;-42
2021/05/24 11:15:16;;;;;;;1.83;1.40;;;;;;;;;;5035011;28;20225;-42
2021/05/24 11:18:04;;;;;;;2.30;1.50;;;;;;;;;;5049504;28;20175;-42
2021/05/24 11:20:31;;;;;;;2.83;1.50;;;;;;;;;;5054649;28;20174;-42
2021/05/24 11:23:11;;;;;;;1.88;1.38;;;;;;;;;;5054768;28;20449;-42
2021/05/24 11:25:50;;;;;;;2.33;1.20;;;;;;;;;;5034776;28;20612;-42
2021/05/24 11:28:16;;;;;;;1.30;1.10;;;;;;;;;;5035247;28;20183;-42
2021/05/24 11:30:42;;;;;;;1.73;1.30;;;;;;;;;;5034428;28;20172;-42
2021/05/24 11:33:27;;;;;;;1.73;1.10;;;;;;;;;;5034773;28;20187;-42
2021/05/24 11:35:53;;;;;;;1.48;1.20;;;;;;;;;;5042334;28;20182;-42
2021/05/24 11:38:28;;;;;;;1.40;1.13;;;;;;;;;;5043846;28;20183;-42
2021/05/24 11:41:08;;;;;;;1.55;1.08;;;;;;;;;;5040095;28;20203;-42
2021/05/24 11:43:34;;;;;;;1.48;1.30;;;;;;;;;;5034859;28;20179;-42
2021/05/24 11:46:04;;;;;;;1.42;1.00;;;;;;;;;;5034777;28;20548;-42
2021/05/24 11:48:37;;;;;;;1.52;1.20;;;;;;;;;;5050357;28;20550;-42
2021/05/24 11:51:04;;;;;;;1.15;1.02;;;;;;;;;;5052872;28;20175;-42
2021/05/24 11:53:30;;;;;;;1.48;1.33;;;;;;;;;;5034606;28;20548;-42
2021/05/24 11:56:06;;;;;;;1.83;1.27;;;;;;;;;;5034209;28;20187;-42
2021/05/24 11:58:32;;;;;;;1.30;1.00;;;;;;;;;;5050502;28;20189;-42
2021/05/24 12:01:04;;;;;;;1.13;1.00;;;;;;;;;;5053650;28;20199;-42
2021/05/24 12:03:30;;;;;;;1.45;1.17;;;;;;;;;;5054381;28;20262;-42
2021/05/24 12:05:57;;;;;;;1.48;1.02;;;;;;;;;;5048364;28;20176;-42
2021/05/24 12:08:23;;;;;;;2.05;1.10;;;;;;;;;;5052340;28;20225;-42
2021/05/24 12:10:59;;;;;;;1.73;1.08;;;;;;;;;;5053976;28;20176;-42
2021/05/24 12:13:25;;;;;;;2.00;1.10;;;;;;;;;;5054251;28;20171;-43
2021/05/24 12:16:01;;;;;;;1.17;1.08;;;;;;;;;;5048380;28;20201;-42
2021/05/24 12:18:29;;;;;;;1.63;1.17;;;;;;;;;;5048595;28;20214;-42
2021/05/24 12:20:55;;;;;;;2.45;1.10;;;;;;;;;;5037988;28;20630;-42
2021/05/24 12:23:22;;;;;;;1.20;1.00;;;;;;;;;;5037424;28;20163;-42
2021/05/24 12:25:49;;;;;;;1.08;0.98;;;;;;;;;;5037959;28;20175;-42
2021/05/24 12:28:16;;;;;;;1.60;1.00;;;;;;;;;;5038020;28;20266;-42
2021/05/24 12:30:44;;;;;;;1.35;1.00;;;;;;;;;;5037382;28;20559;-42
2021/05/24 12:33:10;;;;;;;1.80;1.23;;;;;;;;;;5038072;28;20257;-42
2021/05/24 12:35:41;;;;;;;1.08;0.98;;;;;;;;;;5038149;28;20180;-42
2021/05/24 12:38:17;;;;;;;1.15;0.90;;;;;;;;;;5053067;28;20320;-42
2021/05/24 12:40:43;;;;;;;0.82;0.80;;;;;;;;;;5056008;28;20202;-42
2021/05/24 12:43:09;;;;;;;1.38;0.90;;;;;;;;;;5057909;28;20178;-42
2021/05/24 12:45:35;;;;;;;1.20;0.90;;;;;;;;;;5057823;28;20241;-44
2021/05/24 12:48:11;;;;;;;1.00;0.90;;;;;;;;;;5042642;28;20203;-42
2021/05/24 12:50:37;;;;;;;0.85;0.85;;;;;;;;;;5037315;28;20168;-42
2021/05/24 12:53:10;;;;;;;1.00;0.90;;;;;;;;;;5052031;28;20218;-43
2021/05/24 12:55:37;;;;;;;1.80;0.98;;;;;;;;;;5057239;28;20502;-42
2021/05/24 12:58:08;;;;;;;1.58;1.15;;;;;;;;;;5042591;28;20176;-42
2021/05/24 13:00:40;;;;;;;1.52;1.02;;;;;;;;;;5037136;28;20239;-42
2021/05/24 13:03:06;;;;;;;1.00;0.90;;;;;;;;;;5037627;28;20247;-42
2021/05/24 13:05:32;;;;;;;1.60;1.00;;;;;;;;;;5037877;28;20495;-42
2021/05/24 13:07:58;;;;;;;1.60;1.00;;;;;;;;;;5050919;28;20175;-43
2021/05/24 13:10:30;;;;;;;0.82;0.70;;;;;;;;;;5054725;28;20187;-42
2021/05/24 13:13:00;;;;;;;1.33;1.00;;;;;;;;;;5057471;28;20170;-42
2021/05/24 13:15:37;;;;;;;0.77;0.77;;;;;;;;;;5054745;28;20172;-42
2021/05/24 13:30:37;;;;;;;1.70;1.02;;;;;;;;;;5055915;28;20586;-42
2021/05/24 13:33:23;;;;;;;0.82;0.60;;;;;;;;;;5056486;28;20182;-42
2021/05/24 13:35:49;;;;;;;0.88;0.70;;;;;;;;;;5056676;28;20547;-43
2021/05/24 13:38:16;;;;;;;1.23;0.90;;;;;;;;;;5040983;28;20190;-42
2021/05/24 13:40:42;;;;;;;0.70;0.70;;;;;;;;;;5054958;28;20207;-42
2021/05/24 13:43:08;;;;;;;0.73;0.73;;;;;;;;;;5056630;28;20297;-42
2021/05/24 13:45:34;;;;;;;0.68;0.60;;;;;;;;;;5056623;28;20193;-42
2021/05/24 13:48:00;;;;;;;0.98;0.90;;;;;;;;;;5043039;28;20571;-42
2021/05/24 13:50:26;;;;;;;0.60;0.60;;;;;;;;;;5036534;28;20732;-42
2021/05/24 13:52:52;;;;;;;0.50;0.50;;;;;;;;;;5049767;28;20183;-42
2021/05/24 13:55:18;;;;;;;0.90;0.90;;;;;;;;;;5057088;28;20164;-42
2021/05/24 13:57:44;;;;;;;0.52;0.52;;;;;;;;;;5045467;28;20172;-42
2021/05/24 14:00:11;;;;;;;0.73;0.70;;;;;;;;;;5047925;28;20540;-42
2021/05/24 14:02:37;;;;;;;1.10;0.80;;;;;;;;;;5035850;28;20457;-42
2021/05/24 14:05:04;;;;;;;0.50;0.50;;;;;;;;;;5036550;28;20176;-43
2021/05/24 14:07:30;;;;;;;0.63;0.57;;;;;;;;;;5044695;28;20171;-42
2021/05/24 14:09:56;;;;;;;0.80;0.80;;;;;;;;;;5051695;28;20454;-42
2021/05/24 14:12:22;;;;;;;0.63;0.63;;;;;;;;;;5035483;28;20176;-42
2021/05/24 14:14:48;;;;;;;0.70;0.60;;;;;;;;;;5036072;28;20195;-42
2021/05/24 14:17:14;;;;;;;1.02;0.77;;;;;;;;;;5048724;28;20253;-42
2021/05/24 14:19:40;;;;;;;0.70;0.60;;;;;;;;;;5036217;28;20168;-42
2021/05/24 14:22:07;;;;;;;1.02;0.80;;;;;;;;;;5035675;28;20199;-42
2021/05/24 14:24:33;;;;;;;0.70;0.60;;;;;;;;;;5036820;28;20180;-42
2021/05/24 14:27:01;;;;;;;0.93;0.68;;;;;;;;;;5039413;28;20179;-42
2021/05/24 14:29:27;;;;;;;0.40;0.40;;;;;;;;;;5055853;28;20251;-42
2021/05/24 14:31:53;;;;;;;0.82;0.70;;;;;;;;;;5055465;28;20273;-43
2021/05/24 14:34:19;;;;;;;0.93;0.60;;;;;;;;;;5054874;28;20489;-42
2021/05/24 14:36:45;;;;;;;0.60;0.60;;;;;;;;;;5053826;28;20179;-42
2021/05/24 14:39:11;;;;;;;0.90;0.75;;;;;;;;;;5035971;28;20560;-42
2021/05/24 14:41:37;;;;;;;0.47;0.45;;;;;;;;;;5035340;28;20710;-42
2021/05/24 14:44:03;;;;;;;0.50;0.50;;;;;;;;;;5035841;28;20172;-42
2021/05/24 14:46:30;;;;;;;0.50;0.50;;;;;;;;;;5047166;28;20184;-42
2021/05/24 14:48:57;;;;;;;1.10;0.57;;;;;;;;;;5035915;28;20266;-42
2021/05/24 14:51:28;;;;;;;0.75;0.68;;;;;;;;;;5037427;28;20172;-42
2021/05/24 14:53:54;;;;;;;0.73;0.70;;;;;;;;;;5055804;28;20170;-42